logo
Rechercher aéroport 
image banner adimage banner adimage banner ad
image banner ad

RPLN - Palanan Community Airport

Situé à Palanan, Philippines

ICAO - RPLN, IATA -

Données fournies par Airmate  

Information générale

Coordonnées: N17°3'48" E122°25'56"
Élévation : 167 feet MSL.
Variation magnétique : -3° East
Voir autres Aéroports à Isabela

Données opérationnelles

Special qualification required
Heure actuelle UTC:
Heure actuelle locale:
Météo à : - ( 0 km )
METAR: MMPQ 230049Z 00000KT 4SM SKC 35/21 A2964 RMK HZY MSGTX MMMX
Voir NOTAMs / SUP AIP / TFR affectant cet aéroport [VIEW]
Fréquences de communication: [VIEW]

Pistes:

Identifiant RWYQFULongueur (ft)Largeur (ft)SurfaceLDA (ft)
0222°328198MACADAM3281
20202°328198MACADAM3281

Coordonnées de l'aéroport

Adresse: Palanan Philippines

Vue satellite de RPLN